createdAt,value
2019-04-30T00:02:35.634Z,97622.52
2019-04-30T00:05:39.245Z,97618.62
2019-04-30T00:08:46.423Z,97620.49
2019-04-30T00:11:57.960Z,97613.70
2019-04-30T00:15:01.837Z,97610.58
2019-04-30T00:18:09.578Z,97620.62
2019-04-30T00:21:18.726Z,97613.67
2019-04-30T00:24:25.823Z,97610.91
2019-04-30T00:27:32.672Z,97606.18
2019-04-30T00:30:43.991Z,97614.22
2019-04-30T00:33:48.262Z,97602.35
2019-04-30T00:36:56.124Z,97607.27
2019-04-30T00:40:05.486Z,97607.65
2019-04-30T00:43:12.268Z,97598.31
2019-04-30T00:46:25.515Z,97603.02
2019-04-30T00:49:28.227Z,97595.73
2019-04-30T00:52:37.251Z,97599.81
2019-04-30T00:55:48.367Z,97593.87
2019-04-30T00:58:57.437Z,97592.00
2019-04-30T01:02:10.489Z,97596.41
2019-04-30T01:05:21.121Z,97594.53
2019-04-30T01:08:28.744Z,97597.34
2019-04-30T01:11:39.814Z,97593.20
2019-04-30T01:14:47.285Z,97598.84
2019-04-30T01:17:54.254Z,97588.94
2019-04-30T01:21:02.968Z,97591.77
2019-04-30T01:24:09.954Z,97586.85
2019-04-30T01:27:18.709Z,97580.20
2019-04-30T01:30:25.649Z,97576.93
2019-04-30T01:33:34.695Z,97570.39
2019-04-30T01:36:43.471Z,97566.05
2019-04-30T01:39:51.753Z,97563.03
2019-04-30T01:42:59.292Z,97563.59
2019-04-30T01:46:12.148Z,97570.86
2019-04-30T01:49:14.232Z,97561.03
2019-04-30T01:52:21.243Z,97556.38
2019-04-30T01:55:35.599Z,97562.91
2019-04-30T01:58:49.471Z,97558.55
2019-04-30T02:01:58.520Z,97558.55
2019-04-30T02:05:08.813Z,97560.94
2019-04-30T02:08:15.865Z,97560.39
2019-04-30T02:11:22.685Z,97557.23
2019-04-30T02:14:29.513Z,97555.98
2019-04-30T02:17:36.374Z,97541.82
2019-04-30T02:20:43.293Z,97541.82
2019-04-30T02:23:50.270Z,97565.39
2019-04-30T02:26:57.260Z,97565.91
2019-04-30T02:30:05.353Z,97560.33
2019-04-30T02:33:13.277Z,97557.76
2019-04-30T02:36:24.315Z,97567.73
2019-04-30T02:39:32.927Z,97560.55
2019-04-30T02:42:39.970Z,97560.69
2019-04-30T02:45:49.675Z,97557.72
2019-04-30T02:48:56.279Z,97570.77
2019-04-30T02:52:04.462Z,97563.72
2019-04-30T02:55:16.269Z,97564.28
2019-04-30T02:58:23.273Z,97566.45
2019-04-30T03:01:30.637Z,97565.55
2019-04-30T03:04:39.514Z,97573.01
2019-04-30T03:07:53.028Z,97552.29
2019-04-30T03:10:56.255Z,97552.29
2019-04-30T03:14:03.540Z,97575.45
2019-04-30T03:17:12.620Z,97567.73
2019-04-30T03:20:35.128Z,97567.80
2019-04-30T03:23:32.883Z,97567.80
2019-04-30T03:26:40.276Z,97563.38
2019-04-30T03:29:50.226Z,97563.13
2019-04-30T03:32:57.231Z,97565.97
2019-04-30T03:36:04.249Z,97566.55
2019-04-30T03:39:11.451Z,97566.67
2019-04-30T03:42:19.862Z,97563.87
2019-04-30T03:45:30.028Z,97563.87
2019-04-30T03:48:35.897Z,97567.19
2019-04-30T03:51:42.786Z,97569.63
2019-04-30T03:54:50.945Z,97565.36
2019-04-30T03:58:00.167Z,97567.25
2019-04-30T04:01:19.471Z,97552.75
2019-04-30T04:04:33.812Z,97552.75
2019-04-30T04:07:42.596Z,97573.82
2019-04-30T04:11:03.036Z,97584.17
2019-04-30T04:14:10.584Z,97584.17
2019-04-30T04:17:20.243Z,97569.86
2019-04-30T04:20:26.836Z,97593.75
2019-04-30T04:23:33.871Z,97593.75
2019-04-30T04:26:43.556Z,97592.89
2019-04-30T04:29:51.220Z,97580.62
2019-04-30T04:32:59.906Z,97579.97
2019-04-30T04:36:09.185Z,97579.97
2019-04-30T04:39:15.948Z,97602.31
2019-04-30T04:42:22.724Z,97596.98
2019-04-30T04:45:30.706Z,97599.75
2019-04-30T04:48:39.462Z,97611.03
2019-04-30T04:51:45.552Z,97607.42
2019-04-30T04:54:52.328Z,97606.66
2019-04-30T04:57:59.864Z,97609.89
2019-04-30T05:01:08.685Z,97605.52
2019-04-30T05:04:15.974Z,97610.95
2019-04-30T05:07:25.576Z,97612.38
2019-04-30T05:10:32.632Z,97615.02
2019-04-30T05:13:39.630Z,97615.02
2019-04-30T05:16:46.638Z,97613.44
2019-04-30T05:19:53.713Z,97620.06
2019-04-30T05:23:00.579Z,97615.05
2019-04-30T05:26:08.451Z,97623.19
2019-04-30T05:29:16.223Z,97623.19
2019-04-30T05:32:23.948Z,97626.16
2019-04-30T05:35:31.214Z,97629.21
2019-04-30T05:38:39.168Z,97629.69
2019-04-30T05:41:49.070Z,97639.02
2019-04-30T05:44:55.236Z,97639.02
2019-04-30T05:48:02.254Z,97635.11
2019-04-30T05:51:09.294Z,97628.88
2019-04-30T05:54:15.834Z,97639.26
2019-04-30T05:57:22.514Z,97633.45
2019-04-30T06:00:30.618Z,97635.91
2019-04-30T06:03:38.591Z,97635.91
2019-04-30T06:06:45.629Z,97642.27
2019-04-30T06:10:06.635Z,97642.33
2019-04-30T06:13:15.263Z,97642.33
2019-04-30T06:16:23.747Z,97630.56
2019-04-30T06:19:31.011Z,97645.48
2019-04-30T06:22:38.649Z,97652.03
2019-04-30T06:25:57.419Z,97648.42
2019-04-30T06:28:54.608Z,97646.72
2019-04-30T06:32:02.107Z,97642.48
2019-04-30T06:35:09.262Z,97642.48
2019-04-30T06:38:15.589Z,97641.34
2019-04-30T06:41:21.529Z,97646.14
2019-04-30T06:44:37.457Z,97652.57
2019-04-30T06:47:39.054Z,97651.64
2019-04-30T06:50:46.157Z,97649.86
2019-04-30T06:53:53.205Z,97640.95
2019-04-30T06:57:00.238Z,97641.10
2019-04-30T07:00:09.857Z,97648.68
2019-04-30T07:03:16.818Z,97639.81
2019-04-30T07:06:29.798Z,97644.25
2019-04-30T07:09:52.101Z,97644.44
2019-04-30T07:12:49.750Z,97647.79
2019-04-30T07:15:58.494Z,97638.33
2019-04-30T07:19:05.599Z,97650.19
2019-04-30T07:22:13.302Z,97615.05
2019-04-30T07:25:20.236Z,97615.05
2019-04-30T07:28:42.797Z,97635.88
2019-04-30T07:31:36.646Z,97634.69
2019-04-30T07:34:43.938Z,97647.67
2019-04-30T07:37:54.558Z,97647.67
2019-04-30T07:40:59.395Z,97646.72
2019-04-30T07:44:05.657Z,97646.72
2019-04-30T07:47:12.465Z,97634.56
2019-04-30T07:50:21.511Z,97634.56
2019-04-30T07:53:30.931Z,97642.44
2019-04-30T07:56:41.546Z,97646.83
2019-04-30T07:59:47.256Z,97646.36
2019-04-30T08:02:59.847Z,97644.97
2019-04-30T08:06:10.140Z,97652.95
2019-04-30T08:09:16.016Z,97658.69
2019-04-30T08:12:30.219Z,97653.28
2019-04-30T08:15:33.855Z,97661.02
2019-04-30T08:18:41.104Z,97668.99
2019-04-30T08:21:48.630Z,97668.75
2019-04-30T08:24:56.068Z,97645.09
2019-04-30T08:28:03.293Z,97663.27
2019-04-30T08:31:10.638Z,97673.28
2019-04-30T08:34:20.092Z,97644.06
2019-04-30T08:37:28.874Z,97644.06
2019-04-30T08:40:39.259Z,97682.16
2019-04-30T08:43:46.286Z,97668.23
2019-04-30T08:46:53.480Z,97686.75
2019-04-30T08:50:02.659Z,97674.86
2019-04-30T08:53:10.930Z,97684.56
2019-04-30T08:56:21.648Z,97691.04
2019-04-30T08:59:26.267Z,97685.02
2019-04-30T09:02:33.253Z,97680.31
2019-04-30T09:05:40.461Z,97688.36
2019-04-30T09:08:48.979Z,97681.64
2019-04-30T09:11:59.121Z,97700.89
2019-04-30T09:15:09.163Z,97692.53
2019-04-30T09:18:16.278Z,97678.12
2019-04-30T09:21:23.510Z,97677.52
2019-04-30T09:24:31.152Z,97695.55
2019-04-30T09:27:39.748Z,97695.55
2019-04-30T09:30:48.446Z,97704.61
2019-04-30T09:34:00.158Z,97712.75
2019-04-30T09:37:06.405Z,97692.59
2019-04-30T09:40:17.936Z,97693.36
2019-04-30T09:43:21.282Z,97685.92
2019-04-30T09:46:30.048Z,97686.88
2019-04-30T09:49:38.828Z,97686.88
2019-04-30T09:52:46.285Z,97677.87
2019-04-30T09:55:53.433Z,97672.50
2019-04-30T09:59:00.706Z,97672.50
2019-04-30T10:02:09.298Z,97678.06
2019-04-30T10:05:18.886Z,97685.34
2019-04-30T10:08:30.697Z,97675.92
2019-04-30T10:11:43.596Z,97675.92
2019-04-30T10:14:50.936Z,97667.67
2019-04-30T10:17:58.711Z,97663.09
2019-04-30T10:21:06.273Z,97648.44
2019-04-30T10:24:15.750Z,97660.51
2019-04-30T10:27:23.290Z,97658.90
2019-04-30T10:30:36.319Z,97652.91
2019-04-30T10:33:42.552Z,97650.51
2019-04-30T10:36:49.523Z,97653.89
2019-04-30T10:39:56.537Z,97628.83
2019-04-30T10:43:03.683Z,97642.25
2019-04-30T10:46:10.799Z,97642.25
2019-04-30T10:49:19.228Z,97644.57
2019-04-30T10:52:26.526Z,97643.26
2019-04-30T10:55:33.507Z,97634.33
2019-04-30T10:58:40.443Z,97634.33
2019-04-30T11:01:49.281Z,97636.81
2019-04-30T11:04:56.716Z,97632.00
2019-04-30T11:08:03.594Z,97615.89
2019-04-30T11:11:10.558Z,97617.80
2019-04-30T11:14:17.472Z,97617.80
2019-04-30T11:17:24.485Z,97627.91
2019-04-30T11:20:32.018Z,97624.90
2019-04-30T11:23:39.650Z,97624.44
2019-04-30T11:26:49.681Z,97614.59
2019-04-30T11:30:01.497Z,97605.70
2019-04-30T11:33:06.808Z,97604.99
2019-04-30T11:36:14.044Z,97611.13
2019-04-30T11:39:22.258Z,97603.61
2019-04-30T11:42:32.276Z,97601.23
2019-04-30T11:46:00.319Z,97601.23
2019-04-30T11:49:07.320Z,97592.04
2019-04-30T11:52:14.790Z,97615.89
2019-04-30T11:55:22.079Z,97599.84
2019-04-30T11:58:30.554Z,97581.88
2019-04-30T12:01:37.934Z,97572.73
2019-04-30T12:04:45.590Z,97572.73
2019-04-30T12:07:55.254Z,97586.09
2019-04-30T12:11:04.969Z,97596.00
2019-04-30T12:14:11.774Z,97590.23
2019-04-30T12:17:18.876Z,97602.53
2019-04-30T12:20:25.945Z,97583.14
2019-04-30T12:23:32.880Z,97567.64
2019-04-30T12:26:40.259Z,97589.28
2019-04-30T12:29:49.456Z,97594.63
2019-04-30T12:32:56.309Z,97582.28
2019-04-30T12:36:06.290Z,97572.09
2019-04-30T12:39:12.244Z,97560.55
2019-04-30T12:42:19.262Z,97565.84
2019-04-30T12:45:26.383Z,97543.86
2019-04-30T12:48:34.260Z,97559.91
2019-04-30T12:51:45.851Z,97553.44
2019-04-30T12:54:53.099Z,97575.46
2019-04-30T12:58:01.910Z,97545.83
2019-04-30T13:01:11.555Z,97546.97
2019-04-30T13:04:19.392Z,97530.38
2019-04-30T13:07:27.695Z,97518.51
2019-04-30T13:10:36.190Z,97518.51
2019-04-30T13:13:44.155Z,97517.66
2019-04-30T13:16:51.539Z,97519.92
2019-04-30T13:19:58.402Z,97514.96
2019-04-30T13:23:08.721Z,97514.96
2019-04-30T13:26:18.554Z,97502.03
2019-04-30T13:29:30.265Z,97502.01
2019-04-30T13:32:39.492Z,97516.95
2019-04-30T13:35:46.459Z,97490.18
2019-04-30T13:38:55.264Z,97484.10
2019-04-30T13:42:15.089Z,97484.10
2019-04-30T13:45:12.897Z,97487.52
2019-04-30T13:48:19.848Z,97478.16
2019-04-30T13:51:29.305Z,97484.81
2019-04-30T13:54:38.347Z,97470.05
2019-04-30T13:57:45.394Z,97480.61
2019-04-30T14:00:54.003Z,97466.22
2019-04-30T14:04:05.782Z,97477.59
2019-04-30T14:07:13.257Z,97462.31
2019-04-30T14:10:21.072Z,97473.50
2019-04-30T14:13:28.315Z,97474.48
2019-04-30T14:16:34.848Z,97463.77
2019-04-30T14:19:41.720Z,97467.62
2019-04-30T14:22:49.342Z,97469.72
2019-04-30T14:25:57.004Z,97464.17
2019-04-30T14:29:07.881Z,97464.17
2019-04-30T14:32:18.491Z,97475.75
2019-04-30T14:35:28.562Z,97465.63
2019-04-30T14:38:40.500Z,97479.50
2019-04-30T14:41:51.395Z,97473.95
2019-04-30T14:45:02.207Z,97463.00
2019-04-30T14:48:14.665Z,97466.34
2019-04-30T14:51:23.286Z,97470.15
2019-04-30T14:54:32.255Z,97470.22
2019-04-30T14:57:56.673Z,97467.45
2019-04-30T15:01:05.586Z,97465.20
2019-04-30T15:04:12.409Z,97447.05
2019-04-30T15:07:20.024Z,97447.05
2019-04-30T15:10:26.579Z,97461.44
2019-04-30T15:13:32.566Z,97461.42
2019-04-30T15:16:38.560Z,97452.01
2019-04-30T15:19:44.507Z,97454.29
2019-04-30T15:22:52.296Z,97453.08
2019-04-30T15:25:59.447Z,97440.71
2019-04-30T15:29:11.865Z,97447.63
2019-04-30T15:32:14.263Z,97442.67
2019-04-30T15:35:21.229Z,97441.45
2019-04-30T15:38:46.434Z,97444.77
2019-04-30T15:41:53.770Z,97441.19
2019-04-30T15:45:00.831Z,97442.70
2019-04-30T15:48:08.580Z,97440.70
2019-04-30T15:51:15.784Z,97449.82
2019-04-30T15:54:23.268Z,97446.25
2019-04-30T15:57:30.390Z,97444.86
2019-04-30T16:00:36.608Z,97458.05
2019-04-30T16:03:46.005Z,97453.75
2019-04-30T16:06:52.968Z,97442.11
2019-04-30T16:10:09.275Z,97440.01
2019-04-30T16:13:19.464Z,97440.36
2019-04-30T16:16:28.256Z,97441.08
2019-04-30T16:19:36.248Z,97444.70
2019-04-30T16:22:43.448Z,97451.69
2019-04-30T16:25:50.634Z,97458.20
2019-04-30T16:28:58.726Z,97454.23
2019-04-30T16:32:09.282Z,97454.58
2019-04-30T16:35:19.527Z,97452.23
2019-04-30T16:38:28.832Z,97445.87
2019-04-30T16:41:36.275Z,97440.22
2019-04-30T16:44:44.747Z,97440.22
2019-04-30T16:47:51.955Z,97453.77
2019-04-30T16:50:59.053Z,97446.95
2019-04-30T16:54:06.370Z,97443.69
2019-04-30T16:57:12.635Z,97447.44
2019-04-30T17:00:20.337Z,97442.25
2019-04-30T17:03:31.329Z,97436.39
2019-04-30T17:06:40.618Z,97431.58
2019-04-30T17:09:50.973Z,97441.25
2019-04-30T17:13:00.775Z,97441.12
2019-04-30T17:16:11.305Z,97443.33
2019-04-30T17:19:20.157Z,97448.43
2019-04-30T17:22:29.232Z,97442.92
2019-04-30T17:25:37.763Z,97442.23
2019-04-30T17:28:45.680Z,97442.06
2019-04-30T17:31:53.553Z,97444.81
2019-04-30T17:35:01.031Z,97439.31
2019-04-30T17:38:11.348Z,97439.31
2019-04-30T17:41:23.278Z,97441.98
2019-04-30T17:44:30.268Z,97441.78
2019-04-30T17:47:38.994Z,97445.77
2019-04-30T17:50:46.553Z,97449.31
2019-04-30T17:54:11.523Z,97449.53
2019-04-30T17:57:31.037Z,97441.24
2019-04-30T18:00:31.716Z,97447.19
2019-04-30T18:03:39.768Z,97451.30
2019-04-30T18:06:50.640Z,97459.73
2019-04-30T18:10:03.459Z,97465.77
2019-04-30T18:13:13.083Z,97461.66
2019-04-30T18:16:22.679Z,97461.66
2019-04-30T18:19:33.920Z,97458.84
2019-04-30T18:22:40.956Z,97463.58
2019-04-30T18:25:59.318Z,97461.89
2019-04-30T18:29:06.762Z,97430.73
2019-04-30T18:32:14.625Z,97430.73
2019-04-30T18:35:28.525Z,97466.62
2019-04-30T18:38:40.283Z,97469.35
2019-04-30T18:41:48.735Z,97475.83
2019-04-30T18:44:59.932Z,97471.91
2019-04-30T18:48:10.193Z,97483.07
2019-04-30T18:51:32.887Z,97485.95
2019-04-30T18:54:28.600Z,97480.80
2019-04-30T18:57:35.275Z,97480.80
2019-04-30T19:00:43.725Z,97480.23
2019-04-30T19:03:51.345Z,97485.80
2019-04-30T19:07:04.275Z,97487.50
2019-04-30T19:10:19.323Z,97487.20
2019-04-30T19:13:34.526Z,97489.59
2019-04-30T19:16:53.441Z,97489.59
2019-04-30T19:20:03.258Z,97502.92
2019-04-30T19:23:11.430Z,97505.16
2019-04-30T19:26:20.927Z,97508.56
2019-04-30T19:29:28.517Z,97509.45
2019-04-30T19:32:39.037Z,97514.81
2019-04-30T19:35:50.317Z,97514.26
2019-04-30T19:38:55.290Z,97512.59
2019-04-30T19:42:05.312Z,97511.95
2019-04-30T19:45:15.822Z,97517.06
2019-04-30T19:48:24.964Z,97514.12
2019-04-30T19:51:35.031Z,97520.98
2019-04-30T19:54:42.545Z,97511.29
2019-04-30T19:57:51.740Z,97511.29
2019-04-30T20:01:00.866Z,97523.63
2019-04-30T20:06:43.317Z,97524.20
2019-04-30T20:10:00.194Z,97521.28
2019-04-30T20:13:01.191Z,97524.23
2019-04-30T20:16:11.962Z,97526.13
2019-04-30T20:19:19.947Z,97524.73
2019-04-30T20:22:29.039Z,97525.36
2019-04-30T20:25:36.277Z,97527.75
2019-04-30T20:28:43.345Z,97525.18
2019-04-30T20:31:50.705Z,97523.60
2019-04-30T20:34:59.721Z,97532.26
2019-04-30T20:41:35.264Z,97517.83
2019-04-30T20:44:42.568Z,97516.81
2019-04-30T20:47:49.660Z,97522.33
2019-04-30T20:50:57.276Z,97522.33
2019-04-30T20:54:05.960Z,97521.44
2019-04-30T20:57:16.416Z,97519.40
2019-04-30T21:00:23.278Z,97522.61
2019-04-30T21:03:30.895Z,97524.16
2019-04-30T21:06:43.244Z,97528.09
2019-04-30T21:09:50.847Z,97518.98
2019-04-30T21:13:00.716Z,97518.98
2019-04-30T21:16:08.375Z,97523.50
2019-04-30T21:19:15.441Z,97515.65
2019-04-30T21:22:22.984Z,97516.96
2019-04-30T21:25:29.909Z,97522.25
2019-04-30T21:28:39.213Z,97521.81
2019-04-30T21:32:04.536Z,97522.48
2019-04-30T21:35:24.293Z,97515.24
2019-04-30T21:38:32.964Z,97517.44
2019-04-30T21:41:40.608Z,97517.44
2019-04-30T21:44:47.955Z,97512.94
2019-04-30T21:47:56.507Z,97512.94
2019-04-30T21:51:03.878Z,97503.97
2019-04-30T21:54:12.504Z,97503.97
2019-04-30T21:57:19.260Z,97511.12
2019-04-30T22:00:41.694Z,97510.48
2019-04-30T22:03:50.594Z,97514.28
2019-04-30T22:06:59.515Z,97509.23
2019-04-30T22:10:09.531Z,97505.44
2019-04-30T22:13:18.526Z,97501.20
2019-04-30T22:16:26.588Z,97501.20
2019-04-30T22:19:36.714Z,97505.76
2019-04-30T22:22:44.790Z,97505.76
2019-04-30T22:25:52.310Z,97510.14
2019-04-30T22:28:59.801Z,97501.52
2019-04-30T22:32:06.636Z,97501.52
2019-04-30T22:35:25.897Z,97498.87
2019-04-30T22:38:42.317Z,97510.92
2019-04-30T22:41:50.069Z,97508.54
2019-04-30T22:44:57.254Z,97505.66
2019-04-30T22:48:04.257Z,97505.45
2019-04-30T22:51:11.548Z,97502.85
2019-04-30T22:54:18.580Z,97493.64
2019-04-30T22:57:25.466Z,97492.36
2019-04-30T23:00:37.369Z,97492.36
2019-04-30T23:03:43.541Z,97489.66
2019-04-30T23:06:50.423Z,97489.76
2019-04-30T23:09:57.354Z,97496.03
2019-04-30T23:13:04.646Z,97487.65
2019-04-30T23:16:11.608Z,97485.41
2019-04-30T23:19:18.865Z,97494.36
2019-04-30T23:22:25.669Z,97493.32
2019-04-30T23:25:32.548Z,97489.64
2019-04-30T23:28:40.133Z,97457.25
2019-04-30T23:31:47.116Z,97457.25
2019-04-30T23:34:54.048Z,97471.21
2019-04-30T23:38:01.041Z,97475.11
2019-04-30T23:41:08.253Z,97468.94
2019-04-30T23:44:15.309Z,97472.00
2019-04-30T23:47:22.429Z,97462.00
2019-04-30T23:50:28.535Z,97456.73
2019-04-30T23:53:35.278Z,97456.29
2019-04-30T23:56:42.345Z,97454.98
2019-04-30T23:59:49.265Z,97440.63
